Pagrindinis puslapis
METAR-TAF:

METAR-TAF

Oro uostai :

Vientianas, Laosas

platuma: 17-57N, ilguma: 102-34E, Aukštis: 171 m

Dabartinis oras

Ataskaita buvo paskelbta 35 minutes, ne 00:00 UTC
Ramus vėjas
Temperatūra 24°C
Drėgmė 100%
Slėgis 1009 hPa
Matomumas: 6000 m
Išsisklaidę debesys ne aukštis 1000 ft
Apsiniaukę ne aukštis 8300 ft

METAR: VLVT 260000Z 00000KT 6000 SCT010 OVC083 24/24 Q1009 NOSIG

Laikas: 07:35 (00:35 UTC)

Prognozė

Ataskaita buvo paskelbta 1 valandą ir 35 minutes, ne 23:00 UTC
Prognozė galioja nuo 26 metu 00 UTC su 26 metu 24 UTC
Vėjas 4 kt iš Šiaurės/Šiaurės Vakarų
Matomumas 10 km arba daugiau
Išsisklaidę debesys ne aukštis 1600 ft
Išsisklaidę debesys ne aukštis 20000 ft

TAF: VLVT 252300Z 2600/2624 34004KT 9999 SCT016 SCT200

Orai ataskaitas ir orų prognozės (METAR, TAF).

turimą stotys yra geltonos ir raudonos taškus žemėlapyje.

Perkelti pele per norėdami pamatyti stoties vardą.

Tada spustelėkite, norėdami matyti oro stebėjimo ir prognozės.

Norėdami pakeisti žemėlapį: spustelėkite ant žalios mygtukų su juodo kryžiaus žemyn,; žalią mygtuką su brūkšneliu, jei norite nutolinti; arba žalių rodyklių gretimoms žemėlapius.


METAR-TAF: